sensor_id;sensor_type;location;lat;lon;timestamp;P1;durP1;ratioP1;P2;durP2;ratioP2
3613;SDS011;1821;50.936;6.854;2023-04-03T00:00:23;6.78;;;4.25;;
3613;SDS011;1821;50.936;6.854;2023-04-03T00:01:05;5.22;;;4.10;;
3613;SDS011;1821;50.936;6.854;2023-04-03T00:01:47;5.55;;;4.20;;
3613;SDS011;1821;50.936;6.854;2023-04-03T00:02:29;4.72;;;3.70;;
3613;SDS011;1821;50.936;6.854;2023-04-03T00:03:11;4.90;;;4.25;;
3613;SDS011;1821;50.936;6.854;2023-04-03T00:03:53;8.88;;;4.63;;
3613;SDS011;1821;50.936;6.854;2023-04-03T00:04:36;6.63;;;4.50;;
3613;SDS011;1821;50.936;6.854;2023-04-03T00:05:18;4.97;;;4.30;;
3613;SDS011;1821;50.936;6.854;2023-04-03T00:06:00;5.72;;;4.05;;
3613;SDS011;1821;50.936;6.854;2023-04-03T00:06:42;5.80;;;3.90;;
3613;SDS011;1821;50.936;6.854;2023-04-03T00:07:24;5.63;;;3.97;;
3613;SDS011;1821;50.936;6.854;2023-04-03T00:08:07;6.07;;;3.85;;
3613;SDS011;1821;50.936;6.854;2023-04-03T00:08:50;8.55;;;4.43;;
3613;SDS011;1821;50.936;6.854;2023-04-03T00:09:33;7.40;;;4.05;;
3613;SDS011;1821;50.936;6.854;2023-04-03T00:10:15;5.75;;;3.88;;
3613;SDS011;1821;50.936;6.854;2023-04-03T00:10:57;6.85;;;4.07;;
3613;SDS011;1821;50.936;6.854;2023-04-03T00:11:39;5.32;;;3.97;;
3613;SDS011;1821;50.936;6.854;2023-04-03T00:12:21;5.38;;;4.18;;
3613;SDS011;1821;50.936;6.854;2023-04-03T00:13:03;4.88;;;3.92;;
3613;SDS011;1821;50.936;6.854;2023-04-03T00:13:46;4.55;;;3.47;;
3613;SDS011;1821;50.936;6.854;2023-04-03T00:14:28;4.70;;;3.30;;
3613;SDS011;1821;50.936;6.854;2023-04-03T00:15:11;5.93;;;3.53;;
3613;SDS011;1821;50.936;6.854;2023-04-03T00:15:53;5.07;;;4.00;;
3613;SDS011;1821;50.936;6.854;2023-04-03T00:16:35;6.22;;;3.55;;
3613;SDS011;1821;50.936;6.854;2023-04-03T00:17:17;5.28;;;4.00;;
3613;SDS011;1821;50.936;6.854;2023-04-03T00:17:59;8.68;;;4.20;;
3613;SDS011;1821;50.936;6.854;2023-04-03T00:18:41;6.22;;;3.90;;
3613;SDS011;1821;50.936;6.854;2023-04-03T00:19:23;5.30;;;3.60;;
3613;SDS011;1821;50.936;6.854;2023-04-03T00:20:05;6.40;;;3.90;;
3613;SDS011;1821;50.936;6.854;2023-04-03T00:20:48;4.72;;;3.67;;
3613;SDS011;1821;50.936;6.854;2023-04-03T00:21:30;4.43;;;3.65;;
3613;SDS011;1821;50.936;6.854;2023-04-03T00:22:12;5.90;;;3.95;;
3613;SDS011;1821;50.936;6.854;2023-04-03T00:22:54;6.43;;;3.78;;
3613;SDS011;1821;50.936;6.854;2023-04-03T00:23:39;7.25;;;3.85;;
3613;SDS011;1821;50.936;6.854;2023-04-03T00:24:22;7.00;;;3.80;;
3613;SDS011;1821;50.936;6.854;2023-04-03T00:25:03;5.18;;;3.80;;
3613;SDS011;1821;50.936;6.854;2023-04-03T00:25:46;4.57;;;4.00;;
3613;SDS011;1821;50.936;6.854;2023-04-03T00:26:28;5.65;;;4.00;;
3613;SDS011;1821;50.936;6.854;2023-04-03T00:27:10;5.63;;;3.85;;
3613;SDS011;1821;50.936;6.854;2023-04-03T00:27:52;6.10;;;4.05;;
3613;SDS011;1821;50.936;6.854;2023-04-03T00:28:34;6.50;;;4.55;;
3613;SDS011;1821;50.936;6.854;2023-04-03T00:29:16;6.40;;;3.60;;
3613;SDS011;1821;50.936;6.854;2023-04-03T00:29:58;5.78;;;3.45;;
3613;SDS011;1821;50.936;6.854;2023-04-03T00:30:40;6.82;;;4.13;;
3613;SDS011;1821;50.936;6.854;2023-04-03T00:31:22;5.28;;;4.03;;
3613;SDS011;1821;50.936;6.854;2023-04-03T00:32:04;6.28;;;4.10;;
3613;SDS011;1821;50.936;6.854;2023-04-03T00:32:47;5.35;;;3.95;;
3613;SDS011;1821;50.936;6.854;2023-04-03T00:33:30;5.88;;;4.25;;
3613;SDS011;1821;50.936;6.854;2023-04-03T00:34:14;5.05;;;3.90;;
3613;SDS011;1821;50.936;6.854;2023-04-03T00:34:56;8.68;;;4.05;;
3613;SDS011;1821;50.936;6.854;2023-04-03T00:35:38;8.90;;;4.28;;
3613;SDS011;1821;50.936;6.854;2023-04-03T00:36:21;7.60;;;4.38;;
3613;SDS011;1821;50.936;6.854;2023-04-03T00:37:03;8.23;;;4.32;;
3613;SDS011;1821;50.936;6.854;2023-04-03T00:37:46;8.02;;;4.40;;
3613;SDS011;1821;50.936;6.854;2023-04-03T00:38:29;7.97;;;4.30;;
3613;SDS011;1821;50.936;6.854;2023-04-03T00:39:11;7.15;;;4.85;;
3613;SDS011;1821;50.936;6.854;2023-04-03T00:39:53;7.20;;;4.70;;
3613;SDS011;1821;50.936;6.854;2023-04-03T00:40:36;5.50;;;4.63;;
3613;SDS011;1821;50.936;6.854;2023-04-03T00:41:22;5.60;;;5.00;;
3613;SDS011;1821;50.936;6.854;2023-04-03T00:42:04;6.13;;;5.07;;
3613;SDS011;1821;50.936;6.854;2023-04-03T00:42:47;5.85;;;4.82;;
3613;SDS011;1821;50.936;6.854;2023-04-03T00:43:32;5.65;;;5.05;;
3613;SDS011;1821;50.936;6.854;2023-04-03T00:46:12;7.78;;;6.10;;
3613;SDS011;1821;50.936;6.854;2023-04-03T00:46:55;8.77;;;5.72;;
3613;SDS011;1821;50.936;6.854;2023-04-03T00:47:40;6.70;;;5.63;;
3613;SDS011;1821;50.936;6.854;2023-04-03T00:48:33;10.02;;;6.07;;
3613;SDS011;1821;50.936;6.854;2023-04-03T00:49:18;6.80;;;6.10;;
3613;SDS011;1821;50.936;6.854;2023-04-03T00:50:01;7.00;;;5.60;;
3613;SDS011;1821;50.936;6.854;2023-04-03T00:50:43;6.50;;;5.60;;
3613;SDS011;1821;50.936;6.854;2023-04-03T00:51:26;9.52;;;6.18;;
3613;SDS011;1821;50.936;6.854;2023-04-03T00:52:10;9.73;;;6.35;;
3613;SDS011;1821;50.936;6.854;2023-04-03T00:52:56;9.80;;;6.60;;
3613;SDS011;1821;50.936;6.854;2023-04-03T00:53:40;8.02;;;6.38;;
3613;SDS011;1821;50.936;6.854;2023-04-03T00:54:40;7.75;;;6.40;;
3613;SDS011;1821;50.936;6.854;2023-04-03T00:55:23;9.80;;;6.53;;
3613;SDS011;1821;50.936;6.854;2023-04-03T00:56:07;7.60;;;6.05;;
3613;SDS011;1821;50.936;6.854;2023-04-03T00:56:52;7.35;;;5.85;;
3613;SDS011;1821;50.936;6.854;2023-04-03T00:57:39;6.97;;;5.70;;
3613;SDS011;1821;50.936;6.854;2023-04-03T00:58:25;8.98;;;5.80;;
3613;SDS011;1821;50.936;6.854;2023-04-03T00:59:14;9.45;;;6.28;;
3613;SDS011;1821;50.936;6.854;2023-04-03T01:00:05;9.07;;;5.90;;
3613;SDS011;1821;50.936;6.854;2023-04-03T01:00:54;8.55;;;6.90;;
3613;SDS011;1821;50.936;6.854;2023-04-03T01:01:39;7.90;;;6.25;;
3613;SDS011;1821;50.936;6.854;2023-04-03T01:02:21;7.38;;;5.70;;
3613;SDS011;1821;50.936;6.854;2023-04-03T01:03:03;6.97;;;5.60;;
3613;SDS011;1821;50.936;6.854;2023-04-03T01:03:45;7.43;;;6.28;;
3613;SDS011;1821;50.936;6.854;2023-04-03T01:04:28;8.32;;;6.70;;
3613;SDS011;1821;50.936;6.854;2023-04-03T01:05:21;7.10;;;6.07;;
3613;SDS011;1821;50.936;6.854;2023-04-03T01:06:04;7.43;;;6.30;;
3613;SDS011;1821;50.936;6.854;2023-04-03T01:06:49;7.00;;;5.38;;
3613;SDS011;1821;50.936;6.854;2023-04-03T01:07:31;8.00;;;5.70;;
3613;SDS011;1821;50.936;6.854;2023-04-03T01:08:16;9.90;;;6.60;;
3613;SDS011;1821;50.936;6.854;2023-04-03T01:08:58;7.85;;;6.28;;
3613;SDS011;1821;50.936;6.854;2023-04-03T01:09:41;7.90;;;6.07;;
3613;SDS011;1821;50.936;6.854;2023-04-03T01:10:26;9.38;;;6.32;;
3613;SDS011;1821;50.936;6.854;2023-04-03T01:11:08;7.95;;;6.05;;
3613;SDS011;1821;50.936;6.854;2023-04-03T01:11:51;9.02;;;6.65;;
3613;SDS011;1821;50.936;6.854;2023-04-03T01:12:35;8.60;;;6.40;;
3613;SDS011;1821;50.936;6.854;2023-04-03T01:13:26;6.60;;;5.88;;
3613;SDS011;1821;50.936;6.854;2023-04-03T01:14:10;6.53;;;5.82;;
3613;SDS011;1821;50.936;6.854;2023-04-03T01:14:55;9.93;;;6.28;;
3613;SDS011;1821;50.936;6.854;2023-04-03T01:15:39;8.85;;;6.75;;
3613;SDS011;1821;50.936;6.854;2023-04-03T01:16:24;6.82;;;6.13;;
3613;SDS011;1821;50.936;6.854;2023-04-03T01:17:26;6.60;;;5.90;;
3613;SDS011;1821;50.936;6.854;2023-04-03T01:18:17;8.18;;;6.53;;
3613;SDS011;1821;50.936;6.854;2023-04-03T01:18:59;8.73;;;6.60;;
3613;SDS011;1821;50.936;6.854;2023-04-03T01:19:42;9.57;;;6.05;;
3613;SDS011;1821;50.936;6.854;2023-04-03T01:22:34;8.23;;;5.65;;
3613;SDS011;1821;50.936;6.854;2023-04-03T01:23:31;9.18;;;6.25;;
3613;SDS011;1821;50.936;6.854;2023-04-03T01:24:22;7.43;;;6.00;;
3613;SDS011;1821;50.936;6.854;2023-04-03T01:25:35;6.30;;;5.57;;
3613;SDS011;1821;50.936;6.854;2023-04-03T01:26:24;8.20;;;6.30;;
3613;SDS011;1821;50.936;6.854;2023-04-03T01:27:07;6.70;;;5.70;;
3613;SDS011;1821;50.936;6.854;2023-04-03T01:27:51;6.88;;;5.47;;
3613;SDS011;1821;50.936;6.854;2023-04-03T01:28:34;7.22;;;5.55;;
3613;SDS011;1821;50.936;6.854;2023-04-03T01:29:17;7.20;;;6.05;;
3613;SDS011;1821;50.936;6.854;2023-04-03T01:29:59;7.57;;;6.47;;
3613;SDS011;1821;50.936;6.854;2023-04-03T01:30:46;7.15;;;5.70;;
3613;SDS011;1821;50.936;6.854;2023-04-03T01:31:46;7.90;;;5.93;;
3613;SDS011;1821;50.936;6.854;2023-04-03T01:32:30;8.88;;;5.95;;
3613;SDS011;1821;50.936;6.854;2023-04-03T01:33:12;7.43;;;5.50;;
3613;SDS011;1821;50.936;6.854;2023-04-03T01:33:56;6.53;;;5.55;;
3613;SDS011;1821;50.936;6.854;2023-04-03T01:34:38;6.68;;;5.90;;
3613;SDS011;1821;50.936;6.854;2023-04-03T01:35:20;6.90;;;5.80;;
3613;SDS011;1821;50.936;6.854;2023-04-03T01:36:02;7.10;;;5.55;;
3613;SDS011;1821;50.936;6.854;2023-04-03T01:36:45;6.28;;;5.40;;
3613;SDS011;1821;50.936;6.854;2023-04-03T01:37:27;6.80;;;5.70;;
3613;SDS011;1821;50.936;6.854;2023-04-03T01:38:09;5.90;;;5.30;;
3613;SDS011;1821;50.936;6.854;2023-04-03T01:38:52;6.32;;;5.40;;
3613;SDS011;1821;50.936;6.854;2023-04-03T01:39:34;6.30;;;5.70;;
3613;SDS011;1821;50.936;6.854;2023-04-03T01:40:16;7.20;;;6.32;;
3613;SDS011;1821;50.936;6.854;2023-04-03T01:40:58;7.28;;;6.57;;
3613;SDS011;1821;50.936;6.854;2023-04-03T01:41:41;9.35;;;7.00;;
3613;SDS011;1821;50.936;6.854;2023-04-03T01:42:23;7.80;;;5.70;;
3613;SDS011;1821;50.936;6.854;2023-04-03T01:43:05;7.35;;;6.07;;
3613;SDS011;1821;50.936;6.854;2023-04-03T01:43:47;7.25;;;5.65;;
3613;SDS011;1821;50.936;6.854;2023-04-03T01:44:32;7.50;;;6.20;;
3613;SDS011;1821;50.936;6.854;2023-04-03T01:45:15;8.38;;;6.03;;
3613;SDS011;1821;50.936;6.854;2023-04-03T01:45:57;8.00;;;6.07;;
3613;SDS011;1821;50.936;6.854;2023-04-03T01:46:39;7.90;;;6.00;;
3613;SDS011;1821;50.936;6.854;2023-04-03T01:47:23;7.65;;;6.20;;
3613;SDS011;1821;50.936;6.854;2023-04-03T01:48:05;6.10;;;5.50;;
3613;SDS011;1821;50.936;6.854;2023-04-03T01:48:49;6.28;;;5.57;;
3613;SDS011;1821;50.936;6.854;2023-04-03T01:49:31;7.80;;;5.50;;
3613;SDS011;1821;50.936;6.854;2023-04-03T01:50:13;6.40;;;5.60;;
3613;SDS011;1821;50.936;6.854;2023-04-03T01:50:55;6.28;;;5.28;;
3613;SDS011;1821;50.936;6.854;2023-04-03T01:51:39;6.88;;;5.32;;
3613;SDS011;1821;50.936;6.854;2023-04-03T01:52:21;7.97;;;5.88;;
3613;SDS011;1821;50.936;6.854;2023-04-03T01:53:03;6.63;;;5.05;;
3613;SDS011;1821;50.936;6.854;2023-04-03T01:53:45;5.60;;;5.00;;
3613;SDS011;1821;50.936;6.854;2023-04-03T01:54:29;6.20;;;5.35;;
3613;SDS011;1821;50.936;6.854;2023-04-03T01:55:11;7.03;;;5.60;;
3613;SDS011;1821;50.936;6.854;2023-04-03T01:55:55;6.53;;;5.00;;
3613;SDS011;1821;50.936;6.854;2023-04-03T01:56:39;6.72;;;5.00;;
3613;SDS011;1821;50.936;6.854;2023-04-03T01:57:21;6.80;;;5.13;;
3613;SDS011;1821;50.936;6.854;2023-04-03T01:58:03;7.00;;;5.35;;
3613;SDS011;1821;50.936;6.854;2023-04-03T01:58:45;6.43;;;5.20;;
3613;SDS011;1821;50.936;6.854;2023-04-03T01:59:29;7.38;;;5.45;;
3613;SDS011;1821;50.936;6.854;2023-04-03T02:00:11;8.60;;;5.53;;
3613;SDS011;1821;50.936;6.854;2023-04-03T02:00:54;6.88;;;5.68;;
3613;SDS011;1821;50.936;6.854;2023-04-03T02:01:36;7.60;;;5.43;;
3613;SDS011;1821;50.936;6.854;2023-04-03T02:02:19;9.98;;;5.38;;
3613;SDS011;1821;50.936;6.854;2023-04-03T02:03:02;7.93;;;5.03;;
3613;SDS011;1821;50.936;6.854;2023-04-03T02:03:44;6.90;;;4.80;;
3613;SDS011;1821;50.936;6.854;2023-04-03T02:04:26;6.15;;;4.90;;
3613;SDS011;1821;50.936;6.854;2023-04-03T02:05:08;6.05;;;5.03;;
3613;SDS011;1821;50.936;6.854;2023-04-03T02:05:52;5.80;;;4.90;;
3613;SDS011;1821;50.936;6.854;2023-04-03T02:06:34;8.63;;;5.70;;
3613;SDS011;1821;50.936;6.854;2023-04-03T02:07:16;7.40;;;5.35;;
3613;SDS011;1821;50.936;6.854;2023-04-03T02:07:58;8.65;;;5.68;;
3613;SDS011;1821;50.936;6.854;2023-04-03T02:08:41;9.20;;;5.80;;
3613;SDS011;1821;50.936;6.854;2023-04-03T02:09:22;6.60;;;5.20;;
3613;SDS011;1821;50.936;6.854;2023-04-03T02:10:04;6.13;;;5.53;;
3613;SDS011;1821;50.936;6.854;2023-04-03T02:10:47;6.10;;;5.50;;
3613;SDS011;1821;50.936;6.854;2023-04-03T02:11:30;6.00;;;5.00;;
3613;SDS011;1821;50.936;6.854;2023-04-03T02:12:12;7.78;;;5.22;;
3613;SDS011;1821;50.936;6.854;2023-04-03T02:12:56;6.45;;;5.15;;
3613;SDS011;1821;50.936;6.854;2023-04-03T02:13:38;6.18;;;5.55;;
3613;SDS011;1821;50.936;6.854;2023-04-03T02:14:20;6.00;;;5.25;;
3613;SDS011;1821;50.936;6.854;2023-04-03T02:15:04;6.63;;;5.50;;
3613;SDS011;1821;50.936;6.854;2023-04-03T02:15:47;6.10;;;5.50;;
3613;SDS011;1821;50.936;6.854;2023-04-03T02:16:29;6.63;;;5.25;;
3613;SDS011;1821;50.936;6.854;2023-04-03T02:17:12;7.07;;;5.35;;
3613;SDS011;1821;50.936;6.854;2023-04-03T02:17:54;7.03;;;5.78;;
3613;SDS011;1821;50.936;6.854;2023-04-03T02:18:36;6.78;;;5.53;;
3613;SDS011;1821;50.936;6.854;2023-04-03T02:19:18;6.50;;;5.60;;
3613;SDS011;1821;50.936;6.854;2023-04-03T02:20:00;6.53;;;5.93;;
3613;SDS011;1821;50.936;6.854;2023-04-03T02:20:42;7.05;;;5.90;;
3613;SDS011;1821;50.936;6.854;2023-04-03T02:21:25;6.00;;;5.38;;
3613;SDS011;1821;50.936;6.854;2023-04-03T02:22:06;6.55;;;5.90;;
3613;SDS011;1821;50.936;6.854;2023-04-03T02:22:48;6.30;;;5.63;;
3613;SDS011;1821;50.936;6.854;2023-04-03T02:23:30;7.35;;;6.07;;
3613;SDS011;1821;50.936;6.854;2023-04-03T02:24:15;7.55;;;6.10;;
3613;SDS011;1821;50.936;6.854;2023-04-03T02:24:57;7.88;;;6.18;;
3613;SDS011;1821;50.936;6.854;2023-04-03T02:25:41;6.88;;;6.18;;
3613;SDS011;1821;50.936;6.854;2023-04-03T02:26:24;8.48;;;6.30;;
3613;SDS011;1821;50.936;6.854;2023-04-03T02:27:06;8.73;;;6.32;;
3613;SDS011;1821;50.936;6.854;2023-04-03T02:27:48;6.95;;;6.32;;
3613;SDS011;1821;50.936;6.854;2023-04-03T02:28:31;7.43;;;6.72;;
3613;SDS011;1821;50.936;6.854;2023-04-03T02:29:12;7.80;;;6.70;;
3613;SDS011;1821;50.936;6.854;2023-04-03T02:29:55;8.70;;;6.65;;
3613;SDS011;1821;50.936;6.854;2023-04-03T02:30:36;7.90;;;6.80;;
3613;SDS011;1821;50.936;6.854;2023-04-03T02:31:19;9.30;;;6.90;;
3613;SDS011;1821;50.936;6.854;2023-04-03T02:32:02;7.70;;;6.60;;
3613;SDS011;1821;50.936;6.854;2023-04-03T02:32:46;9.30;;;6.97;;
3613;SDS011;1821;50.936;6.854;2023-04-03T02:33:29;8.57;;;7.30;;
3613;SDS011;1821;50.936;6.854;2023-04-03T02:34:11;9.30;;;7.50;;
3613;SDS011;1821;50.936;6.854;2023-04-03T02:34:53;8.18;;;7.10;;
3613;SDS011;1821;50.936;6.854;2023-04-03T02:35:34;8.65;;;7.40;;
3613;SDS011;1821;50.936;6.854;2023-04-03T02:36:18;7.93;;;7.13;;
3613;SDS011;1821;50.936;6.854;2023-04-03T02:37:00;9.15;;;7.50;;
3613;SDS011;1821;50.936;6.854;2023-04-03T02:37:41;8.50;;;7.68;;
3613;SDS011;1821;50.936;6.854;2023-04-03T02:38:26;9.30;;;7.80;;
3613;SDS011;1821;50.936;6.854;2023-04-03T02:39:08;9.55;;;7.65;;
3613;SDS011;1821;50.936;6.854;2023-04-03T02:39:50;7.68;;;6.53;;
3613;SDS011;1821;50.936;6.854;2023-04-03T02:40:33;8.32;;;7.43;;
3613;SDS011;1821;50.936;6.854;2023-04-03T02:41:15;8.45;;;7.30;;
3613;SDS011;1821;50.936;6.854;2023-04-03T02:41:57;7.75;;;6.97;;
3613;SDS011;1821;50.936;6.854;2023-04-03T02:42:40;8.80;;;7.90;;
3613;SDS011;1821;50.936;6.854;2023-04-03T02:43:22;13.13;;;8.38;;
3613;SDS011;1821;50.936;6.854;2023-04-03T02:44:06;11.45;;;7.57;;
3613;SDS011;1821;50.936;6.854;2023-04-03T02:44:50;8.93;;;7.65;;
3613;SDS011;1821;50.936;6.854;2023-04-03T02:45:32;10.77;;;7.88;;
3613;SDS011;1821;50.936;6.854;2023-04-03T02:46:16;9.73;;;7.22;;
3613;SDS011;1821;50.936;6.854;2023-04-03T02:46:57;8.85;;;7.65;;
3613;SDS011;1821;50.936;6.854;2023-04-03T02:47:40;8.57;;;7.68;;
3613;SDS011;1821;50.936;6.854;2023-04-03T02:48:22;9.15;;;7.78;;
3613;SDS011;1821;50.936;6.854;2023-04-03T02:49:05;9.60;;;7.82;;
3613;SDS011;1821;50.936;6.854;2023-04-03T02:49:47;8.98;;;7.80;;
3613;SDS011;1821;50.936;6.854;2023-04-03T02:50:29;11.48;;;7.28;;
3613;SDS011;1821;50.936;6.854;2023-04-03T02:51:11;8.10;;;7.30;;
3613;SDS011;1821;50.936;6.854;2023-04-03T02:51:53;8.43;;;7.68;;
3613;SDS011;1821;50.936;6.854;2023-04-03T02:52:35;8.40;;;7.50;;
3613;SDS011;1821;50.936;6.854;2023-04-03T02:53:17;9.27;;;8.38;;
3613;SDS011;1821;50.936;6.854;2023-04-03T02:54:00;9.70;;;8.20;;
3613;SDS011;1821;50.936;6.854;2023-04-03T02:54:42;8.90;;;8.00;;
3613;SDS011;1821;50.936;6.854;2023-04-03T02:55:26;9.02;;;8.23;;
3613;SDS011;1821;50.936;6.854;2023-04-03T02:56:08;8.90;;;8.00;;
3613;SDS011;1821;50.936;6.854;2023-04-03T02:56:50;9.35;;;7.50;;
3613;SDS011;1821;50.936;6.854;2023-04-03T02:57:32;12.80;;;8.02;;
3613;SDS011;1821;50.936;6.854;2023-04-03T02:58:17;8.52;;;7.72;;
3613;SDS011;1821;50.936;6.854;2023-04-03T02:59:01;8.85;;;8.05;;
3613;SDS011;1821;50.936;6.854;2023-04-03T02:59:43;8.73;;;7.75;;
3613;SDS011;1821;50.936;6.854;2023-04-03T03:00:25;8.40;;;7.43;;
3613;SDS011;1821;50.936;6.854;2023-04-03T03:01:07;8.98;;;8.00;;
3613;SDS011;1821;50.936;6.854;2023-04-03T03:01:51;8.20;;;7.30;;
3613;SDS011;1821;50.936;6.854;2023-04-03T03:02:33;8.70;;;7.80;;
3613;SDS011;1821;50.936;6.854;2023-04-03T03:03:15;9.25;;;7.80;;
3613;SDS011;1821;50.936;6.854;2023-04-03T03:04:01;10.90;;;7.60;;
3613;SDS011;1821;50.936;6.854;2023-04-03T03:04:43;9.85;;;8.05;;
3613;SDS011;1821;50.936;6.854;2023-04-03T03:05:25;9.82;;;8.40;;
3613;SDS011;1821;50.936;6.854;2023-04-03T03:06:09;11.15;;;8.15;;
3613;SDS011;1821;50.936;6.854;2023-04-03T03:06:53;9.32;;;7.72;;
3613;SDS011;1821;50.936;6.854;2023-04-03T03:07:36;10.18;;;7.43;;
3613;SDS011;1821;50.936;6.854;2023-04-03T03:08:18;9.93;;;8.05;;
3613;SDS011;1821;50.936;6.854;2023-04-03T03:09:01;9.30;;;8.32;;
3613;SDS011;1821;50.936;6.854;2023-04-03T03:09:46;8.73;;;7.85;;
3613;SDS011;1821;50.936;6.854;2023-04-03T03:10:28;9.45;;;8.48;;
3613;SDS011;1821;50.936;6.854;2023-04-03T03:11:11;9.43;;;8.25;;
3613;SDS011;1821;50.936;6.854;2023-04-03T03:11:53;8.35;;;7.50;;
3613;SDS011;1821;50.936;6.854;2023-04-03T03:12:36;8.35;;;6.80;;
3613;SDS011;1821;50.936;6.854;2023-04-03T03:13:17;8.50;;;6.85;;
3613;SDS011;1821;50.936;6.854;2023-04-03T03:13:59;8.52;;;7.53;;
3613;SDS011;1821;50.936;6.854;2023-04-03T03:14:41;8.38;;;7.57;;
3613;SDS011;1821;50.936;6.854;2023-04-03T03:15:26;8.75;;;7.95;;
3613;SDS011;1821;50.936;6.854;2023-04-03T03:16:08;8.68;;;7.72;;
3613;SDS011;1821;50.936;6.854;2023-04-03T03:16:50;8.90;;;7.10;;
3613;SDS011;1821;50.936;6.854;2023-04-03T03:17:33;8.80;;;7.22;;
3613;SDS011;1821;50.936;6.854;2023-04-03T03:18:15;8.15;;;7.35;;
3613;SDS011;1821;50.936;6.854;2023-04-03T03:18:58;8.00;;;7.18;;
3613;SDS011;1821;50.936;6.854;2023-04-03T03:19:41;10.13;;;7.30;;
3613;SDS011;1821;50.936;6.854;2023-04-03T03:20:23;10.93;;;7.80;;
3613;SDS011;1821;50.936;6.854;2023-04-03T03:21:05;9.27;;;7.53;;
3613;SDS011;1821;50.936;6.854;2023-04-03T03:21:47;10.50;;;7.10;;
3613;SDS011;1821;50.936;6.854;2023-04-03T03:22:29;8.65;;;6.93;;
3613;SDS011;1821;50.936;6.854;2023-04-03T03:23:13;10.63;;;7.80;;
3613;SDS011;1821;50.936;6.854;2023-04-03T03:23:57;12.02;;;8.10;;
3613;SDS011;1821;50.936;6.854;2023-04-03T03:24:41;9.13;;;7.45;;
3613;SDS011;1821;50.936;6.854;2023-04-03T03:25:23;9.90;;;7.47;;
3613;SDS011;1821;50.936;6.854;2023-04-03T03:26:06;8.82;;;7.85;;
3613;SDS011;1821;50.936;6.854;2023-04-03T03:26:50;8.80;;;7.90;;
3613;SDS011;1821;50.936;6.854;2023-04-03T03:27:32;9.70;;;7.05;;
3613;SDS011;1821;50.936;6.854;2023-04-03T03:28:14;10.15;;;7.60;;
3613;SDS011;1821;50.936;6.854;2023-04-03T03:28:56;9.50;;;7.82;;
3613;SDS011;1821;50.936;6.854;2023-04-03T03:29:39;8.07;;;7.28;;
3613;SDS011;1821;50.936;6.854;2023-04-03T03:30:21;9.63;;;7.50;;
3613;SDS011;1821;50.936;6.854;2023-04-03T03:31:03;10.07;;;7.38;;
3613;SDS011;1821;50.936;6.854;2023-04-03T03:31:45;8.50;;;7.40;;
3613;SDS011;1821;50.936;6.854;2023-04-03T03:32:27;8.65;;;7.75;;
3613;SDS011;1821;50.936;6.854;2023-04-03T03:33:11;8.30;;;7.50;;
3613;SDS011;1821;50.936;6.854;2023-04-03T03:33:54;8.40;;;7.07;;
3613;SDS011;1821;50.936;6.854;2023-04-03T03:34:35;7.80;;;7.00;;
3613;SDS011;1821;50.936;6.854;2023-04-03T03:35:17;7.82;;;7.03;;
3613;SDS011;1821;50.936;6.854;2023-04-03T03:35:59;9.45;;;7.25;;
3613;SDS011;1821;50.936;6.854;2023-04-03T03:36:44;9.63;;;7.80;;
3613;SDS011;1821;50.936;6.854;2023-04-03T03:37:26;8.88;;;7.50;;
3613;SDS011;1821;50.936;6.854;2023-04-03T03:38:09;8.75;;;7.85;;
3613;SDS011;1821;50.936;6.854;2023-04-03T03:38:51;8.77;;;7.10;;
3613;SDS011;1821;50.936;6.854;2023-04-03T03:39:33;10.00;;;7.65;;
3613;SDS011;1821;50.936;6.854;2023-04-03T03:40:15;9.13;;;7.80;;
3613;SDS011;1821;50.936;6.854;2023-04-03T03:40:58;9.90;;;7.90;;
3613;SDS011;1821;50.936;6.854;2023-04-03T03:41:40;9.20;;;7.35;;
3613;SDS011;1821;50.936;6.854;2023-04-03T03:42:22;8.73;;;7.10;;
3613;SDS011;1821;50.936;6.854;2023-04-03T03:43:04;8.57;;;7.50;;
3613;SDS011;1821;50.936;6.854;2023-04-03T03:43:46;8.50;;;7.60;;
3613;SDS011;1821;50.936;6.854;2023-04-03T03:44:28;8.02;;;7.15;;
3613;SDS011;1821;50.936;6.854;2023-04-03T03:45:10;8.50;;;7.00;;
3613;SDS011;1821;50.936;6.854;2023-04-03T03:45:52;9.63;;;7.50;;
3613;SDS011;1821;50.936;6.854;2023-04-03T03:46:35;7.97;;;6.75;;
3613;SDS011;1821;50.936;6.854;2023-04-03T03:47:17;8.90;;;7.15;;
3613;SDS011;1821;50.936;6.854;2023-04-03T03:47:59;8.30;;;6.72;;
3613;SDS011;1821;50.936;6.854;2023-04-03T03:48:41;7.65;;;6.85;;
3613;SDS011;1821;50.936;6.854;2023-04-03T03:49:24;10.10;;;7.65;;
3613;SDS011;1821;50.936;6.854;2023-04-03T03:50:06;8.23;;;6.50;;
3613;SDS011;1821;50.936;6.854;2023-04-03T03:50:48;6.63;;;5.85;;
3613;SDS011;1821;50.936;6.854;2023-04-03T03:51:30;7.53;;;6.72;;
3613;SDS011;1821;50.936;6.854;2023-04-03T03:52:12;8.05;;;6.47;;
3613;SDS011;1821;50.936;6.854;2023-04-03T03:52:54;8.77;;;6.50;;
3613;SDS011;1821;50.936;6.854;2023-04-03T03:53:36;9.40;;;6.40;;
3613;SDS011;1821;50.936;6.854;2023-04-03T03:54:19;9.45;;;6.13;;
3613;SDS011;1821;50.936;6.854;2023-04-03T03:55:00;9.50;;;5.90;;
3613;SDS011;1821;50.936;6.854;2023-04-03T03:55:42;7.45;;;5.57;;
3613;SDS011;1821;50.936;6.854;2023-04-03T03:56:24;9.40;;;5.60;;
3613;SDS011;1821;50.936;6.854;2023-04-03T03:57:06;10.13;;;5.50;;
3613;SDS011;1821;50.936;6.854;2023-04-03T03:57:48;6.97;;;5.60;;
3613;SDS011;1821;50.936;6.854;2023-04-03T03:58:30;6.78;;;5.50;;
3613;SDS011;1821;50.936;6.854;2023-04-03T03:59:13;7.35;;;5.85;;
3613;SDS011;1821;50.936;6.854;2023-04-03T03:59:55;7.68;;;6.22;;
3613;SDS011;1821;50.936;6.854;2023-04-03T04:00:40;6.93;;;6.15;;
3613;SDS011;1821;50.936;6.854;2023-04-03T04:01:22;7.65;;;5.25;;
3613;SDS011;1821;50.936;6.854;2023-04-03T04:02:05;9.80;;;5.05;;
3613;SDS011;1821;50.936;6.854;2023-04-03T04:02:47;10.07;;;5.50;;
3613;SDS011;1821;50.936;6.854;2023-04-03T04:03:29;6.82;;;5.13;;
3613;SDS011;1821;50.936;6.854;2023-04-03T04:04:11;6.90;;;6.07;;
3613;SDS011;1821;50.936;6.854;2023-04-03T04:04:54;6.30;;;5.70;;
3613;SDS011;1821;50.936;6.854;2023-04-03T04:05:36;6.38;;;5.15;;
3613;SDS011;1821;50.936;6.854;2023-04-03T04:06:19;7.93;;;4.50;;
3613;SDS011;1821;50.936;6.854;2023-04-03T04:07:02;7.20;;;5.50;;
3613;SDS011;1821;50.936;6.854;2023-04-03T04:07:46;6.30;;;5.45;;
3613;SDS011;1821;50.936;6.854;2023-04-03T04:08:28;6.25;;;5.00;;
3613;SDS011;1821;50.936;6.854;2023-04-03T04:09:10;7.72;;;4.97;;
3613;SDS011;1821;50.936;6.854;2023-04-03T04:09:53;8.27;;;4.90;;
3613;SDS011;1821;50.936;6.854;2023-04-03T04:10:35;6.47;;;5.35;;
3613;SDS011;1821;50.936;6.854;2023-04-03T04:11:19;7.90;;;5.70;;
3613;SDS011;1821;50.936;6.854;2023-04-03T04:12:03;7.22;;;4.88;;
3613;SDS011;1821;50.936;6.854;2023-04-03T04:12:45;7.32;;;4.53;;
3613;SDS011;1821;50.936;6.854;2023-04-03T04:13:27;4.90;;;4.40;;
3613;SDS011;1821;50.936;6.854;2023-04-03T04:14:11;6.18;;;4.60;;
3613;SDS011;1821;50.936;6.854;2023-04-03T04:14:54;5.50;;;4.82;;
3613;SDS011;1821;50.936;6.854;2023-04-03T04:15:36;7.65;;;4.75;;
3613;SDS011;1821;50.936;6.854;2023-04-03T04:16:19;8.32;;;5.35;;
3613;SDS011;1821;50.936;6.854;2023-04-03T04:17:01;7.53;;;4.95;;
3613;SDS011;1821;50.936;6.854;2023-04-03T04:17:43;5.82;;;4.63;;
3613;SDS011;1821;50.936;6.854;2023-04-03T04:18:26;6.18;;;4.50;;
3613;SDS011;1821;50.936;6.854;2023-04-03T04:19:08;8.18;;;5.55;;
3613;SDS011;1821;50.936;6.854;2023-04-03T04:19:50;9.82;;;5.65;;
3613;SDS011;1821;50.936;6.854;2023-04-03T04:20:32;6.72;;;4.70;;
3613;SDS011;1821;50.936;6.854;2023-04-03T04:21:14;5.57;;;4.70;;
3613;SDS011;1821;50.936;6.854;2023-04-03T04:21:57;4.90;;;4.22;;
3613;SDS011;1821;50.936;6.854;2023-04-03T04:22:39;7.47;;;4.05;;
3613;SDS011;1821;50.936;6.854;2023-04-03T04:23:21;5.88;;;4.20;;
3613;SDS011;1821;50.936;6.854;2023-04-03T04:24:03;5.28;;;4.78;;
3613;SDS011;1821;50.936;6.854;2023-04-03T04:24:45;5.80;;;4.47;;
3613;SDS011;1821;50.936;6.854;2023-04-03T04:25:27;6.80;;;4.40;;
3613;SDS011;1821;50.936;6.854;2023-04-03T04:26:11;5.00;;;3.83;;
3613;SDS011;1821;50.936;6.854;2023-04-03T04:26:53;6.50;;;4.70;;
3613;SDS011;1821;50.936;6.854;2023-04-03T04:27:35;9.50;;;5.03;;
3613;SDS011;1821;50.936;6.854;2023-04-03T04:28:18;8.50;;;4.45;;
3613;SDS011;1821;50.936;6.854;2023-04-03T04:29:00;7.35;;;4.50;;
3613;SDS011;1821;50.936;6.854;2023-04-03T04:29:42;8.20;;;4.80;;
3613;SDS011;1821;50.936;6.854;2023-04-03T04:30:26;6.38;;;4.65;;
3613;SDS011;1821;50.936;6.854;2023-04-03T04:31:08;6.22;;;4.43;;
3613;SDS011;1821;50.936;6.854;2023-04-03T04:31:50;5.88;;;4.70;;